sensor_id;sensor_type;location;lat;lon;timestamp;pressure;altitude;pressure_sealevel;temperature
15062;BMP180;7630;50.306;8.566;2023-06-22T00:02:08;97957.00;;;20.50
15062;BMP180;7630;50.306;8.566;2023-06-22T00:06:09;97971.00;;;21.00
15062;BMP180;7630;50.306;8.566;2023-06-22T00:10:10;97989.00;;;21.00
15062;BMP180;7630;50.306;8.566;2023-06-22T00:14:12;98012.00;;;22.80
15062;BMP180;7630;50.306;8.566;2023-06-22T00:18:13;98024.00;;;22.50
15062;BMP180;7630;50.306;8.566;2023-06-22T00:22:14;98036.00;;;23.50
15062;BMP180;7630;50.306;8.566;2023-06-22T00:26:15;98055.00;;;23.80
15062;BMP180;7630;50.306;8.566;2023-06-22T00:30:17;98036.00;;;23.60
15062;BMP180;7630;50.306;8.566;2023-06-22T00:34:18;98078.00;;;23.60
15062;BMP180;7630;50.306;8.566;2023-06-22T00:38:19;98093.00;;;23.30
15062;BMP180;7630;50.306;8.566;2023-06-22T00:42:20;98093.00;;;23.10
15062;BMP180;7630;50.306;8.566;2023-06-22T00:46:22;98103.00;;;23.40
15062;BMP180;7630;50.306;8.566;2023-06-22T00:50:29;98098.00;;;24.00
15062;BMP180;7630;50.306;8.566;2023-06-22T00:54:33;98098.00;;;24.40
15062;BMP180;7630;50.306;8.566;2023-06-22T00:58:36;98098.00;;;24.20
15062;BMP180;7630;50.306;8.566;2023-06-22T01:02:37;98120.00;;;24.50
15062;BMP180;7630;50.306;8.566;2023-06-22T01:06:45;98129.00;;;24.60
15062;BMP180;7630;50.306;8.566;2023-06-22T01:15:11;98149.00;;;24.20
15062;BMP180;7630;50.306;8.566;2023-06-22T01:19:35;98162.00;;;24.20
15062;BMP180;7630;50.306;8.566;2023-06-22T01:32:18;98175.00;;;23.40
15062;BMP180;7630;50.306;8.566;2023-06-22T01:36:21;98143.00;;;22.30
15062;BMP180;7630;50.306;8.566;2023-06-22T01:40:24;98092.00;;;20.50
15062;BMP180;7630;50.306;8.566;2023-06-22T01:44:28;98081.00;;;19.90
15062;BMP180;7630;50.306;8.566;2023-06-22T01:48:30;98072.00;;;20.70
15062;BMP180;7630;50.306;8.566;2023-06-22T01:52:31;98057.00;;;20.20
15062;BMP180;7630;50.306;8.566;2023-06-22T01:56:35;98057.00;;;19.80
15062;BMP180;7630;50.306;8.566;2023-06-22T02:00:38;98056.00;;;20.40
15062;BMP180;7630;50.306;8.566;2023-06-22T02:04:47;98061.00;;;20.70
15062;BMP180;7630;50.306;8.566;2023-06-22T02:08:55;98076.00;;;21.90
15062;BMP180;7630;50.306;8.566;2023-06-22T02:12:57;98093.00;;;21.80
15062;BMP180;7630;50.306;8.566;2023-06-22T02:16:59;98083.00;;;22.10
15062;BMP180;7630;50.306;8.566;2023-06-22T02:21:01;98061.00;;;22.40
15062;BMP180;7630;50.306;8.566;2023-06-22T02:25:02;98015.00;;;20.70
15062;BMP180;7630;50.306;8.566;2023-06-22T02:29:03;98003.00;;;19.80
15062;BMP180;7630;50.306;8.566;2023-06-22T02:33:05;98017.00;;;21.20
15062;BMP180;7630;50.306;8.566;2023-06-22T02:37:06;98034.00;;;22.10
15062;BMP180;7630;50.306;8.566;2023-06-22T02:41:07;98033.00;;;22.40
15062;BMP180;7630;50.306;8.566;2023-06-22T02:45:09;98047.00;;;22.70
15062;BMP180;7630;50.306;8.566;2023-06-22T02:49:10;98051.00;;;22.20
15062;BMP180;7630;50.306;8.566;2023-06-22T02:53:12;98063.00;;;22.30
15062;BMP180;7630;50.306;8.566;2023-06-22T02:57:13;98053.00;;;22.20
15062;BMP180;7630;50.306;8.566;2023-06-22T03:01:15;98009.00;;;21.10
15062;BMP180;7630;50.306;8.566;2023-06-22T03:05:16;98009.00;;;20.30
15062;BMP180;7630;50.306;8.566;2023-06-22T03:09:19;98012.00;;;20.20
15062;BMP180;7630;50.306;8.566;2023-06-22T03:13:20;98017.00;;;21.00
15062;BMP180;7630;50.306;8.566;2023-06-22T03:17:21;98003.00;;;21.80
15062;BMP180;7630;50.306;8.566;2023-06-22T03:21:23;98005.00;;;22.50
15062;BMP180;7630;50.306;8.566;2023-06-22T03:25:25;98000.00;;;22.70
15062;BMP180;7630;50.306;8.566;2023-06-22T03:29:26;97985.00;;;22.30
15062;BMP180;7630;50.306;8.566;2023-06-22T03:33:29;97991.00;;;22.10
15062;BMP180;7630;50.306;8.566;2023-06-22T03:37:31;97994.00;;;22.60
15062;BMP180;7630;50.306;8.566;2023-06-22T03:41:32;97995.00;;;22.80
15062;BMP180;7630;50.306;8.566;2023-06-22T03:45:33;97990.00;;;22.60
15062;BMP180;7630;50.306;8.566;2023-06-22T03:49:35;97987.00;;;22.70
15062;BMP180;7630;50.306;8.566;2023-06-22T03:53:36;97984.00;;;22.30
15062;BMP180;7630;50.306;8.566;2023-06-22T03:57:37;97987.00;;;22.80
15062;BMP180;7630;50.306;8.566;2023-06-22T04:01:38;97983.00;;;22.90
15062;BMP180;7630;50.306;8.566;2023-06-22T04:05:40;97997.00;;;22.80
15062;BMP180;7630;50.306;8.566;2023-06-22T04:09:41;97993.00;;;23.00
15062;BMP180;7630;50.306;8.566;2023-06-22T04:13:42;98002.00;;;23.30
15062;BMP180;7630;50.306;8.566;2023-06-22T04:17:44;97996.00;;;23.40
15062;BMP180;7630;50.306;8.566;2023-06-22T04:21:45;97997.00;;;23.40
15062;BMP180;7630;50.306;8.566;2023-06-22T04:25:48;97999.00;;;23.50
15062;BMP180;7630;50.306;8.566;2023-06-22T04:29:49;97998.00;;;23.50
15062;BMP180;7630;50.306;8.566;2023-06-22T04:33:52;97995.00;;;23.60
15062;BMP180;7630;50.306;8.566;2023-06-22T04:37:57;98009.00;;;23.60
15062;BMP180;7630;50.306;8.566;2023-06-22T04:41:58;97995.00;;;23.80
15062;BMP180;7630;50.306;8.566;2023-06-22T04:46:03;98006.00;;;23.80
15062;BMP180;7630;50.306;8.566;2023-06-22T04:50:04;98013.00;;;24.00
15062;BMP180;7630;50.306;8.566;2023-06-22T04:54:07;98022.00;;;24.00
15062;BMP180;7630;50.306;8.566;2023-06-22T04:58:09;98015.00;;;22.80
15062;BMP180;7630;50.306;8.566;2023-06-22T05:02:10;98016.00;;;22.60
15062;BMP180;7630;50.306;8.566;2023-06-22T05:06:11;98015.00;;;23.50
15062;BMP180;7630;50.306;8.566;2023-06-22T05:10:12;98000.00;;;24.00
15062;BMP180;7630;50.306;8.566;2023-06-22T05:14:13;98006.00;;;24.30
15062;BMP180;7630;50.306;8.566;2023-06-22T05:18:15;97998.00;;;24.70
15062;BMP180;7630;50.306;8.566;2023-06-22T05:22:16;97999.00;;;25.20
15062;BMP180;7630;50.306;8.566;2023-06-22T05:26:24;98003.00;;;25.40
15062;BMP180;7630;50.306;8.566;2023-06-22T05:30:21;98007.00;;;25.90
15062;BMP180;7630;50.306;8.566;2023-06-22T05:34:23;98009.00;;;25.30
15062;BMP180;7630;50.306;8.566;2023-06-22T05:38:24;97995.00;;;25.00
15062;BMP180;7630;50.306;8.566;2023-06-22T05:42:25;98002.00;;;24.50
15062;BMP180;7630;50.306;8.566;2023-06-22T05:46:26;97999.00;;;24.30
15062;BMP180;7630;50.306;8.566;2023-06-22T05:50:28;97991.00;;;22.50
15062;BMP180;7630;50.306;8.566;2023-06-22T05:54:29;97988.00;;;21.60
15062;BMP180;7630;50.306;8.566;2023-06-22T05:58:30;97986.00;;;21.60
15062;BMP180;7630;50.306;8.566;2023-06-22T06:02:32;97988.00;;;22.00
15062;BMP180;7630;50.306;8.566;2023-06-22T06:06:34;97985.00;;;23.00
15062;BMP180;7630;50.306;8.566;2023-06-22T06:10:38;97979.00;;;24.70
15062;BMP180;7630;50.306;8.566;2023-06-22T06:14:39;97985.00;;;25.00
15062;BMP180;7630;50.306;8.566;2023-06-22T06:18:40;97991.00;;;24.20
15062;BMP180;7630;50.306;8.566;2023-06-22T06:22:41;97993.00;;;24.20
15062;BMP180;7630;50.306;8.566;2023-06-22T06:26:43;97991.00;;;23.80
15062;BMP180;7630;50.306;8.566;2023-06-22T06:30:45;97989.00;;;23.70
15062;BMP180;7630;50.306;8.566;2023-06-22T06:34:48;97984.00;;;23.60
15062;BMP180;7630;50.306;8.566;2023-06-22T06:38:49;97986.00;;;23.20
15062;BMP180;7630;50.306;8.566;2023-06-22T06:42:50;97984.00;;;23.10
15062;BMP180;7630;50.306;8.566;2023-06-22T06:46:51;97981.00;;;22.50
15062;BMP180;7630;50.306;8.566;2023-06-22T06:50:52;97978.00;;;22.70
15062;BMP180;7630;50.306;8.566;2023-06-22T06:54:53;97978.00;;;22.50
15062;BMP180;7630;50.306;8.566;2023-06-22T06:58:54;97963.00;;;22.60
15062;BMP180;7630;50.306;8.566;2023-06-22T07:02:56;97971.00;;;23.20
15062;BMP180;7630;50.306;8.566;2023-06-22T07:07:00;97967.00;;;23.70
15062;BMP180;7630;50.306;8.566;2023-06-22T07:11:02;97963.00;;;23.80
15062;BMP180;7630;50.306;8.566;2023-06-22T07:15:07;97970.00;;;25.00
15062;BMP180;7630;50.306;8.566;2023-06-22T07:19:11;97970.00;;;24.30
15062;BMP180;7630;50.306;8.566;2023-06-22T07:23:12;97959.00;;;24.50
15062;BMP180;7630;50.306;8.566;2023-06-22T07:27:15;97960.00;;;24.70
15062;BMP180;7630;50.306;8.566;2023-06-22T07:31:18;97958.00;;;24.30
15062;BMP180;7630;50.306;8.566;2023-06-22T07:35:19;97952.00;;;24.10
15062;BMP180;7630;50.306;8.566;2023-06-22T07:39:23;97956.00;;;24.20
15062;BMP180;7630;50.306;8.566;2023-06-22T07:43:26;97958.00;;;25.20
15062;BMP180;7630;50.306;8.566;2023-06-22T07:47:27;97956.00;;;25.00
15062;BMP180;7630;50.306;8.566;2023-06-22T07:51:29;97946.00;;;25.40
15062;BMP180;7630;50.306;8.566;2023-06-22T07:55:30;97937.00;;;25.60
15062;BMP180;7630;50.306;8.566;2023-06-22T07:59:31;97926.00;;;25.50
15062;BMP180;7630;50.306;8.566;2023-06-22T08:03:33;97925.00;;;25.70
15062;BMP180;7630;50.306;8.566;2023-06-22T08:07:35;97911.00;;;25.60
15062;BMP180;7630;50.306;8.566;2023-06-22T08:11:38;97878.00;;;26.70
15062;BMP180;7630;50.306;8.566;2023-06-22T08:15:39;97915.00;;;26.30
15062;BMP180;7630;50.306;8.566;2023-06-22T08:19:40;97914.00;;;26.00
15062;BMP180;7630;50.306;8.566;2023-06-22T08:23:42;97904.00;;;26.60
15062;BMP180;7630;50.306;8.566;2023-06-22T08:27:47;97908.00;;;29.00
15062;BMP180;7630;50.306;8.566;2023-06-22T08:31:49;97843.00;;;29.00
15062;BMP180;7630;50.306;8.566;2023-06-22T08:35:50;97895.00;;;29.00
15062;BMP180;7630;50.306;8.566;2023-06-22T08:39:51;97898.00;;;29.00
15062;BMP180;7630;50.306;8.566;2023-06-22T08:43:52;97898.00;;;29.10
15062;BMP180;7630;50.306;8.566;2023-06-22T08:47:53;97904.00;;;29.20
15062;BMP180;7630;50.306;8.566;2023-06-22T08:51:55;97890.00;;;30.60
15062;BMP180;7630;50.306;8.566;2023-06-22T08:55:57;97885.00;;;30.10
15062;BMP180;7630;50.306;8.566;2023-06-22T08:59:59;97883.00;;;28.90
15062;BMP180;7630;50.306;8.566;2023-06-22T09:04:02;97890.00;;;30.80
15062;BMP180;7630;50.306;8.566;2023-06-22T09:08:06;97883.00;;;29.40
15062;BMP180;7630;50.306;8.566;2023-06-22T09:12:07;97878.00;;;29.70
15062;BMP180;7630;50.306;8.566;2023-06-22T09:16:09;97867.00;;;30.00
15062;BMP180;7630;50.306;8.566;2023-06-22T09:20:10;97880.00;;;29.70
15062;BMP180;7630;50.306;8.566;2023-06-22T09:24:12;97885.00;;;29.90
15062;BMP180;7630;50.306;8.566;2023-06-22T09:28:14;97862.00;;;31.00
15062;BMP180;7630;50.306;8.566;2023-06-22T09:32:15;97863.00;;;29.80
15062;BMP180;7630;50.306;8.566;2023-06-22T09:36:16;97872.00;;;30.30
15062;BMP180;7630;50.306;8.566;2023-06-22T09:40:18;97855.00;;;30.10
15062;BMP180;7630;50.306;8.566;2023-06-22T09:44:19;97862.00;;;29.90
15062;BMP180;7630;50.306;8.566;2023-06-22T09:48:20;97848.00;;;29.50
15062;BMP180;7630;50.306;8.566;2023-06-22T09:52:22;97858.00;;;30.30
15062;BMP180;7630;50.306;8.566;2023-06-22T09:56:24;97853.00;;;30.60
15062;BMP180;7630;50.306;8.566;2023-06-22T10:00:30;97857.00;;;30.60
15062;BMP180;7630;50.306;8.566;2023-06-22T10:04:31;97840.00;;;30.70
15062;BMP180;7630;50.306;8.566;2023-06-22T10:08:33;97844.00;;;30.10
15062;BMP180;7630;50.306;8.566;2023-06-22T10:12:34;97840.00;;;30.40
15062;BMP180;7630;50.306;8.566;2023-06-22T10:16:36;97818.00;;;30.30
15062;BMP180;7630;50.306;8.566;2023-06-22T10:20:37;97819.00;;;30.20
15062;BMP180;7630;50.306;8.566;2023-06-22T10:24:38;97808.00;;;29.40
15062;BMP180;7630;50.306;8.566;2023-06-22T10:28:41;97810.00;;;29.50
15062;BMP180;7630;50.306;8.566;2023-06-22T10:32:42;97800.00;;;30.30
15062;BMP180;7630;50.306;8.566;2023-06-22T10:36:44;97803.00;;;30.10
15062;BMP180;7630;50.306;8.566;2023-06-22T10:44:56;97798.00;;;31.00
15062;BMP180;7630;50.306;8.566;2023-06-22T10:48:57;97765.00;;;31.30
15062;BMP180;7630;50.306;8.566;2023-06-22T10:52:59;97768.00;;;29.80
15062;BMP180;7630;50.306;8.566;2023-06-22T10:57:02;97751.00;;;31.60
15062;BMP180;7630;50.306;8.566;2023-06-22T11:01:03;97734.00;;;30.90
15062;BMP180;7630;50.306;8.566;2023-06-22T11:05:04;97735.00;;;30.40
15062;BMP180;7630;50.306;8.566;2023-06-22T11:09:06;97729.00;;;31.00
15062;BMP180;7630;50.306;8.566;2023-06-22T11:13:08;97727.00;;;30.10
15062;BMP180;7630;50.306;8.566;2023-06-22T11:17:11;97713.00;;;32.00
15062;BMP180;7630;50.306;8.566;2023-06-22T11:21:12;97703.00;;;31.60
15062;BMP180;7630;50.306;8.566;2023-06-22T11:25:13;97691.00;;;32.20
15062;BMP180;7630;50.306;8.566;2023-06-22T11:29:14;97714.00;;;31.40
15062;BMP180;7630;50.306;8.566;2023-06-22T11:33:17;97687.00;;;32.30
15062;BMP180;7630;50.306;8.566;2023-06-22T11:37:18;97686.00;;;32.00
15062;BMP180;7630;50.306;8.566;2023-06-22T11:41:19;97684.00;;;33.00
15062;BMP180;7630;50.306;8.566;2023-06-22T11:45:20;97664.00;;;32.80
15062;BMP180;7630;50.306;8.566;2023-06-22T11:49:21;97675.00;;;33.60
15062;BMP180;7630;50.306;8.566;2023-06-22T11:53:24;97655.00;;;34.40
15062;BMP180;7630;50.306;8.566;2023-06-22T11:57:26;97672.00;;;34.90
15062;BMP180;7630;50.306;8.566;2023-06-22T12:01:27;97671.00;;;35.20
15062;BMP180;7630;50.306;8.566;2023-06-22T12:05:29;97661.00;;;33.50
15062;BMP180;7630;50.306;8.566;2023-06-22T12:09:30;97674.00;;;35.70
15062;BMP180;7630;50.306;8.566;2023-06-22T12:13:31;97666.00;;;36.80
15062;BMP180;7630;50.306;8.566;2023-06-22T12:17:33;97661.00;;;37.10
15062;BMP180;7630;50.306;8.566;2023-06-22T12:21:34;97663.00;;;36.80
15062;BMP180;7630;50.306;8.566;2023-06-22T12:25:36;97657.00;;;36.10
15062;BMP180;7630;50.306;8.566;2023-06-22T12:29:37;97660.00;;;35.60
15062;BMP180;7630;50.306;8.566;2023-06-22T12:33:38;97647.00;;;34.30
15062;BMP180;7630;50.306;8.566;2023-06-22T12:37:41;97658.00;;;35.00
15062;BMP180;7630;50.306;8.566;2023-06-22T12:41:43;97641.00;;;34.00
15062;BMP180;7630;50.306;8.566;2023-06-22T12:45:44;97650.00;;;35.70
15062;BMP180;7630;50.306;8.566;2023-06-22T12:49:45;97635.00;;;33.60
15062;BMP180;7630;50.306;8.566;2023-06-22T12:53:46;97644.00;;;36.90
15062;BMP180;7630;50.306;8.566;2023-06-22T12:57:48;97645.00;;;38.70
15062;BMP180;7630;50.306;8.566;2023-06-22T13:01:49;97622.00;;;39.40
15062;BMP180;7630;50.306;8.566;2023-06-22T13:05:50;97615.00;;;38.50
15062;BMP180;7630;50.306;8.566;2023-06-22T13:09:51;97609.00;;;36.00
15062;BMP180;7630;50.306;8.566;2023-06-22T13:13:53;97605.00;;;38.10
15062;BMP180;7630;50.306;8.566;2023-06-22T13:17:55;97606.00;;;39.00
15062;BMP180;7630;50.306;8.566;2023-06-22T13:21:56;97603.00;;;39.60
15062;BMP180;7630;50.306;8.566;2023-06-22T13:25:58;97593.00;;;37.40
15062;BMP180;7630;50.306;8.566;2023-06-22T13:29:59;97496.00;;;37.10
15062;BMP180;7630;50.306;8.566;2023-06-22T13:34:00;97575.00;;;36.50
15062;BMP180;7630;50.306;8.566;2023-06-22T13:38:01;97554.00;;;36.40
15062;BMP180;7630;50.306;8.566;2023-06-22T13:42:03;97556.00;;;34.00
15062;BMP180;7630;50.306;8.566;2023-06-22T13:46:04;97543.00;;;36.50
15062;BMP180;7630;50.306;8.566;2023-06-22T13:50:06;97538.00;;;33.90
15062;BMP180;7630;50.306;8.566;2023-06-22T13:54:07;97544.00;;;35.40
15062;BMP180;7630;50.306;8.566;2023-06-22T13:58:10;97531.00;;;36.50
15062;BMP180;7630;50.306;8.566;2023-06-22T14:02:11;97542.00;;;36.40
15062;BMP180;7630;50.306;8.566;2023-06-22T14:06:12;97543.00;;;37.00
15062;BMP180;7630;50.306;8.566;2023-06-22T14:10:13;97522.00;;;37.60
15062;BMP180;7630;50.306;8.566;2023-06-22T14:14:14;97504.00;;;36.00
15062;BMP180;7630;50.306;8.566;2023-06-22T14:18:16;97489.00;;;34.60
15062;BMP180;7630;50.306;8.566;2023-06-22T14:22:17;97497.00;;;33.50
15062;BMP180;7630;50.306;8.566;2023-06-22T14:26:18;97502.00;;;33.60
15062;BMP180;7630;50.306;8.566;2023-06-22T14:30:19;97494.00;;;33.20
15062;BMP180;7630;50.306;8.566;2023-06-22T14:34:20;97484.00;;;33.20
15062;BMP180;7630;50.306;8.566;2023-06-22T14:38:22;97482.00;;;32.90
15062;BMP180;7630;50.306;8.566;2023-06-22T14:42:23;97480.00;;;33.40
15062;BMP180;7630;50.306;8.566;2023-06-22T14:46:24;97475.00;;;33.90
15062;BMP180;7630;50.306;8.566;2023-06-22T14:50:25;97458.00;;;33.30
15062;BMP180;7630;50.306;8.566;2023-06-22T14:54:26;97451.00;;;33.30
15062;BMP180;7630;50.306;8.566;2023-06-22T14:58:28;97447.00;;;33.40
15062;BMP180;7630;50.306;8.566;2023-06-22T15:02:31;97437.00;;;33.80
15062;BMP180;7630;50.306;8.566;2023-06-22T15:06:32;97440.00;;;33.60
15062;BMP180;7630;50.306;8.566;2023-06-22T15:10:33;97459.00;;;33.10
15062;BMP180;7630;50.306;8.566;2023-06-22T15:14:34;97434.00;;;33.10
15062;BMP180;7630;50.306;8.566;2023-06-22T15:18:36;97432.00;;;33.40
15062;BMP180;7630;50.306;8.566;2023-06-22T15:22:37;97444.00;;;33.30
15062;BMP180;7630;50.306;8.566;2023-06-22T15:26:38;97441.00;;;32.80
15062;BMP180;7630;50.306;8.566;2023-06-22T15:30:39;97438.00;;;32.30
15062;BMP180;7630;50.306;8.566;2023-06-22T15:34:40;97451.00;;;31.80
15062;BMP180;7630;50.306;8.566;2023-06-22T15:38:42;97501.00;;;29.80
15062;BMP180;7630;50.306;8.566;2023-06-22T15:42:44;97537.00;;;25.60
15062;BMP180;7630;50.306;8.566;2023-06-22T15:46:48;97494.00;;;22.30
15062;BMP180;7630;50.306;8.566;2023-06-22T15:50:49;97527.00;;;21.40
15062;BMP180;7630;50.306;8.566;2023-06-22T15:54:51;97432.00;;;22.80
15062;BMP180;7630;50.306;8.566;2023-06-22T15:58:54;97428.00;;;23.00
15062;BMP180;7630;50.306;8.566;2023-06-22T16:02:57;97417.00;;;22.60
15062;BMP180;7630;50.306;8.566;2023-06-22T16:06:58;97416.00;;;23.10
15062;BMP180;7630;50.306;8.566;2023-06-22T16:11:00;97410.00;;;23.70
15062;BMP180;7630;50.306;8.566;2023-06-22T16:15:03;97450.00;;;22.90
15062;BMP180;7630;50.306;8.566;2023-06-22T16:19:04;97565.00;;;21.80
15062;BMP180;7630;50.306;8.566;2023-06-22T16:23:06;97668.00;;;20.30
15062;BMP180;7630;50.306;8.566;2023-06-22T16:27:07;97597.00;;;20.70
15062;BMP180;7630;50.306;8.566;2023-06-22T16:31:08;97610.00;;;21.00
15062;BMP180;7630;50.306;8.566;2023-06-22T16:35:09;97548.00;;;21.60
15062;BMP180;7630;50.306;8.566;2023-06-22T16:39:10;97539.00;;;22.60
15062;BMP180;7630;50.306;8.566;2023-06-22T16:43:11;97545.00;;;22.80
15062;BMP180;7630;50.306;8.566;2023-06-22T16:47:12;97542.00;;;22.40
15062;BMP180;7630;50.306;8.566;2023-06-22T16:51:13;97534.00;;;22.20
15062;BMP180;7630;50.306;8.566;2023-06-22T16:55:14;97511.00;;;22.30
15062;BMP180;7630;50.306;8.566;2023-06-22T16:59:15;97488.00;;;22.80
15062;BMP180;7630;50.306;8.566;2023-06-22T17:03:29;97488.00;;;23.10
15062;BMP180;7630;50.306;8.566;2023-06-22T17:07:33;97485.00;;;22.30
15062;BMP180;7630;50.306;8.566;2023-06-22T17:11:36;97499.00;;;21.80
15062;BMP180;7630;50.306;8.566;2023-06-22T17:15:38;97498.00;;;22.40
15062;BMP180;7630;50.306;8.566;2023-06-22T17:19:41;97496.00;;;23.70
15062;BMP180;7630;50.306;8.566;2023-06-22T17:23:43;97489.00;;;23.10
15062;BMP180;7630;50.306;8.566;2023-06-22T17:27:47;97484.00;;;23.00
15062;BMP180;7630;50.306;8.566;2023-06-22T17:31:51;97474.00;;;23.90
15062;BMP180;7630;50.306;8.566;2023-06-22T17:35:54;97471.00;;;24.30
15062;BMP180;7630;50.306;8.566;2023-06-22T17:39:56;97465.00;;;24.80
15062;BMP180;7630;50.306;8.566;2023-06-22T17:43:57;97447.00;;;24.80
15062;BMP180;7630;50.306;8.566;2023-06-22T17:47:58;97450.00;;;25.20
15062;BMP180;7630;50.306;8.566;2023-06-22T17:52:00;97441.00;;;25.10
15062;BMP180;7630;50.306;8.566;2023-06-22T17:56:01;97442.00;;;24.90
15062;BMP180;7630;50.306;8.566;2023-06-22T18:00:04;97445.00;;;25.00
15062;BMP180;7630;50.306;8.566;2023-06-22T18:04:09;97443.00;;;24.90
15062;BMP180;7630;50.306;8.566;2023-06-22T18:08:13;97450.00;;;24.80
15062;BMP180;7630;50.306;8.566;2023-06-22T18:12:15;97448.00;;;24.90
15062;BMP180;7630;50.306;8.566;2023-06-22T18:16:16;97444.00;;;25.00
15062;BMP180;7630;50.306;8.566;2023-06-22T18:20:18;97432.00;;;25.00
15062;BMP180;7630;50.306;8.566;2023-06-22T18:24:22;97418.00;;;24.40
15062;BMP180;7630;50.306;8.566;2023-06-22T18:28:24;97456.00;;;23.70
15062;BMP180;7630;50.306;8.566;2023-06-22T18:32:28;97426.00;;;24.40
15062;BMP180;7630;50.306;8.566;2023-06-22T18:40:52;97413.00;;;25.40
15062;BMP180;7630;50.306;8.566;2023-06-22T18:44:55;97423.00;;;25.30
15062;BMP180;7630;50.306;8.566;2023-06-22T18:49:23;97420.00;;;24.60
15062;BMP180;7630;50.306;8.566;2023-06-22T18:53:04;97424.00;;;25.00
15062;BMP180;7630;50.306;8.566;2023-06-22T19:01:23;97426.00;;;25.10
15062;BMP180;7630;50.306;8.566;2023-06-22T19:05:40;97423.00;;;25.20
15062;BMP180;7630;50.306;8.566;2023-06-22T19:09:47;97415.00;;;25.40
15062;BMP180;7630;50.306;8.566;2023-06-22T19:13:47;97406.00;;;24.80
15062;BMP180;7630;50.306;8.566;2023-06-22T19:17:51;97395.00;;;25.30
15062;BMP180;7630;50.306;8.566;2023-06-22T19:21:58;97395.00;;;25.40
15062;BMP180;7630;50.306;8.566;2023-06-22T19:26:02;97381.00;;;24.30
15062;BMP180;7630;50.306;8.566;2023-06-22T19:30:04;97379.00;;;23.80
15062;BMP180;7630;50.306;8.566;2023-06-22T19:34:08;97378.00;;;23.30
15062;BMP180;7630;50.306;8.566;2023-06-22T19:38:11;97365.00;;;22.00
15062;BMP180;7630;50.306;8.566;2023-06-22T19:42:14;97366.00;;;20.70
15062;BMP180;7630;50.306;8.566;2023-06-22T19:46:15;97391.00;;;20.70
15062;BMP180;7630;50.306;8.566;2023-06-22T19:50:17;97399.00;;;22.00
15062;BMP180;7630;50.306;8.566;2023-06-22T19:54:19;97419.00;;;20.90
15062;BMP180;7630;50.306;8.566;2023-06-22T19:58:20;97411.00;;;23.10
15062;BMP180;7630;50.306;8.566;2023-06-22T20:02:28;97428.00;;;22.80
15062;BMP180;7630;50.306;8.566;2023-06-22T20:06:27;97434.00;;;23.00
15062;BMP180;7630;50.306;8.566;2023-06-22T20:10:36;97430.00;;;23.70
15062;BMP180;7630;50.306;8.566;2023-06-22T20:14:35;97432.00;;;23.10
15062;BMP180;7630;50.306;8.566;2023-06-22T20:18:36;97437.00;;;23.60
15062;BMP180;7630;50.306;8.566;2023-06-22T20:22:41;97410.00;;;23.60
15062;BMP180;7630;50.306;8.566;2023-06-22T20:26:44;97406.00;;;23.40
15062;BMP180;7630;50.306;8.566;2023-06-22T20:31:06;97412.00;;;22.90
15062;BMP180;7630;50.306;8.566;2023-06-22T20:35:07;97413.00;;;23.10
15062;BMP180;7630;50.306;8.566;2023-06-22T20:39:08;97413.00;;;22.40
15062;BMP180;7630;50.306;8.566;2023-06-22T20:43:12;97435.00;;;23.30
15062;BMP180;7630;50.306;8.566;2023-06-22T20:47:14;97447.00;;;23.20
15062;BMP180;7630;50.306;8.566;2023-06-22T20:51:15;97426.00;;;22.10
15062;BMP180;7630;50.306;8.566;2023-06-22T20:55:18;97430.00;;;21.60
15062;BMP180;7630;50.306;8.566;2023-06-22T20:59:19;97435.00;;;21.80
15062;BMP180;7630;50.306;8.566;2023-06-22T21:03:21;97443.00;;;22.00
15062;BMP180;7630;50.306;8.566;2023-06-22T21:07:22;97458.00;;;22.80
15062;BMP180;7630;50.306;8.566;2023-06-22T21:11:23;97461.00;;;21.70
15062;BMP180;7630;50.306;8.566;2023-06-22T21:15:25;97464.00;;;22.00
15062;BMP180;7630;50.306;8.566;2023-06-22T21:19:26;97467.00;;;23.50
15062;BMP180;7630;50.306;8.566;2023-06-22T21:23:27;97469.00;;;23.20
15062;BMP180;7630;50.306;8.566;2023-06-22T21:27:28;97489.00;;;23.50
15062;BMP180;7630;50.306;8.566;2023-06-22T21:31:30;97486.00;;;22.60
15062;BMP180;7630;50.306;8.566;2023-06-22T21:35:33;97495.00;;;22.40
15062;BMP180;7630;50.306;8.566;2023-06-22T21:39:35;97491.00;;;21.20
15062;BMP180;7630;50.306;8.566;2023-06-22T21:43:36;97496.00;;;21.60
15062;BMP180;7630;50.306;8.566;2023-06-22T21:47:37;97491.00;;;20.90
15062;BMP180;7630;50.306;8.566;2023-06-22T21:51:38;97513.00;;;20.50
15062;BMP180;7630;50.306;8.566;2023-06-22T21:55:39;97534.00;;;20.70
15062;BMP180;7630;50.306;8.566;2023-06-22T21:59:41;97549.00;;;20.00
15062;BMP180;7630;50.306;8.566;2023-06-22T22:03:42;97552.00;;;20.70
15062;BMP180;7630;50.306;8.566;2023-06-22T22:07:44;97554.00;;;20.10
15062;BMP180;7630;50.306;8.566;2023-06-22T22:11:46;97557.00;;;20.70
15062;BMP180;7630;50.306;8.566;2023-06-22T22:15:47;97550.00;;;20.10
15062;BMP180;7630;50.306;8.566;2023-06-22T22:19:52;97568.00;;;19.70
15062;BMP180;7630;50.306;8.566;2023-06-22T22:23:53;97587.00;;;19.30
15062;BMP180;7630;50.306;8.566;2023-06-22T22:27:55;97588.00;;;19.00
15062;BMP180;7630;50.306;8.566;2023-06-22T22:31:57;97603.00;;;19.10
15062;BMP180;7630;50.306;8.566;2023-06-22T22:35:58;97609.00;;;19.30
15062;BMP180;7630;50.306;8.566;2023-06-22T22:40:00;97598.00;;;19.90
15062;BMP180;7630;50.306;8.566;2023-06-22T22:44:01;97590.00;;;19.90
15062;BMP180;7630;50.306;8.566;2023-06-22T22:48:03;97590.00;;;18.70
15062;BMP180;7630;50.306;8.566;2023-06-22T22:52:05;97590.00;;;18.50
15062;BMP180;7630;50.306;8.566;2023-06-22T22:56:06;97614.00;;;18.60
15062;BMP180;7630;50.306;8.566;2023-06-22T23:00:09;97621.00;;;18.50
15062;BMP180;7630;50.306;8.566;2023-06-22T23:04:12;97608.00;;;18.20
15062;BMP180;7630;50.306;8.566;2023-06-22T23:08:15;97604.00;;;18.00
15062;BMP180;7630;50.306;8.566;2023-06-22T23:12:16;97603.00;;;18.10
15062;BMP180;7630;50.306;8.566;2023-06-22T23:16:17;97491.00;;;17.90
15062;BMP180;7630;50.306;8.566;2023-06-22T23:20:18;97586.00;;;18.10
15062;BMP180;7630;50.306;8.566;2023-06-22T23:24:20;97567.00;;;17.80
15062;BMP180;7630;50.306;8.566;2023-06-22T23:28:22;97550.00;;;18.20
15062;BMP180;7630;50.306;8.566;2023-06-22T23:32:24;97562.00;;;17.80
15062;BMP180;7630;50.306;8.566;2023-06-22T23:36:26;97575.00;;;17.90
15062;BMP180;7630;50.306;8.566;2023-06-22T23:40:27;97569.00;;;17.70
15062;BMP180;7630;50.306;8.566;2023-06-22T23:44:28;97572.00;;;17.40
15062;BMP180;7630;50.306;8.566;2023-06-22T23:48:29;97582.00;;;17.10
15062;BMP180;7630;50.306;8.566;2023-06-22T23:52:31;97570.00;;;17.50
15062;BMP180;7630;50.306;8.566;2023-06-22T23:56:32;97569.00;;;16.80
